Time;durP1;ratioP1;P1;durP2;ratioP2;P2;SDS_P1;SDS_P2;PMS_P1;PMS_P2;Temp;Humidity;BMP_temperature;BMP_pressure;BME280_temperature;BME280_humidity;BME280_pressure;Samples;Min_cycle;Max_cycle;Signal;HPM_P1;HPM_P2
2021/10/19 00:00:49;;;;;;;12.90;7.88;;;;;;;3.09;100.00;97572.72;5015218;28;20573;-61
2021/10/19 00:03:15;;;;;;;11.68;8.38;;;;;;;3.19;100.00;97577.97;5020336;28;20045;-61
2021/10/19 00:05:40;;;;;;;13.95;9.13;;;;;;;3.27;100.00;97576.47;5037148;28;20135;-62
2021/10/19 00:08:06;;;;;;;12.32;8.07;;;;;;;3.30;100.00;97573.19;5033035;28;20030;-60
2021/10/19 00:10:31;;;;;;;14.30;8.70;;;;;;;3.24;100.00;97567.06;5021509;28;20044;-62
2021/10/19 00:12:56;;;;;;;18.00;9.80;;;;;;;2.91;100.00;97562.75;5019442;28;20152;-61
2021/10/19 00:15:22;;;;;;;14.20;9.23;;;;;;;2.38;100.00;97564.63;4998725;28;20339;-60
2021/10/19 00:17:48;;;;;;;16.17;9.73;;;;;;;2.31;100.00;97564.16;5023469;28;20038;-62
2021/10/19 00:20:15;;;;;;;16.92;10.13;;;;;;;2.28;100.00;97559.34;5025320;28;20091;-63
2021/10/19 00:22:41;;;;;;;20.13;10.80;;;;;;;2.33;100.00;97561.97;5034596;28;20045;-61
2021/10/19 00:25:09;;;;;;;15.75;10.40;;;;;;;2.57;100.00;97556.47;5024851;28;20056;-63
2021/10/19 00:27:35;;;;;;;18.15;10.32;;;;;;;2.67;100.00;97563.66;5023112;28;20131;-63
2021/10/19 00:30:03;;;;;;;19.88;9.85;;;;;;;2.61;100.00;97554.81;5023770;23;20081;-63
2021/10/19 00:32:28;;;;;;;17.77;9.45;;;;;;;2.68;100.00;97560.66;4997125;28;20443;-63
2021/10/19 00:34:54;;;;;;;16.40;9.82;;;;;;;2.83;100.00;97569.63;4999444;28;20136;-63
2021/10/19 00:37:19;;;;;;;13.85;8.98;;;;;;;2.92;100.00;97578.69;4988370;28;20034;-63
2021/10/19 00:39:45;;;;;;;14.35;9.18;;;;;;;2.98;100.00;97580.19;4985123;28;20129;-62
2021/10/19 00:42:10;;;;;;;15.98;9.63;;;;;;;3.03;100.00;97577.41;4995279;28;20553;-62
2021/10/19 00:44:36;;;;;;;13.85;8.93;;;;;;;3.10;100.00;97579.75;5021909;28;20056;-63
2021/10/19 00:47:01;;;;;;;13.38;9.13;;;;;;;3.09;100.00;97569.22;5022791;28;20045;-63
2021/10/19 00:49:27;;;;;;;16.60;8.88;;;;;;;3.12;100.00;97577.53;5008963;28;20049;-62
2021/10/19 00:51:54;;;;;;;17.98;8.73;;;;;;;3.23;100.00;97584.38;5012723;28;20128;-65
2021/10/19 00:54:23;;;;;;;11.25;7.85;;;;;;;3.19;100.00;97571.75;4997421;28;20045;-63
2021/10/19 00:56:51;;;;;;;14.32;8.77;;;;;;;2.55;100.00;97571.41;5008033;28;20060;-61
2021/10/19 00:59:16;;;;;;;17.48;8.98;;;;;;;2.03;100.00;97566.69;5017008;28;20033;-63
2021/10/19 01:01:42;;;;;;;18.05;10.35;;;;;;;1.72;100.00;97567.03;5020787;28;20103;-63
2021/10/19 01:04:08;;;;;;;17.75;11.05;;;;;;;1.73;100.00;97562.47;4999224;28;20048;-62
2021/10/19 01:06:33;;;;;;;16.27;10.88;;;;;;;1.95;100.00;97559.22;5018249;28;20044;-60
2021/10/19 01:09:00;;;;;;;17.95;10.88;;;;;;;2.28;100.00;97570.16;5021438;28;20037;-62
2021/10/19 01:11:25;;;;;;;17.80;11.27;;;;;;;2.37;100.00;97567.59;4995038;28;20038;-61
2021/10/19 01:13:51;;;;;;;16.85;10.98;;;;;;;2.55;100.00;97572.19;5021050;28;20394;-63
2021/10/19 01:16:16;;;;;;;15.68;10.70;;;;;;;2.67;100.00;97559.03;5013035;28;20137;-62
2021/10/19 01:18:43;;;;;;;15.05;10.27;;;;;;;2.57;100.00;97547.56;5020365;28;20402;-63
2021/10/19 01:21:09;;;;;;;18.63;10.98;;;;;;;2.37;100.00;97530.53;5015030;28;20044;-63
2021/10/19 01:23:35;;;;;;;16.60;11.45;;;;;;;2.12;100.00;97547.13;5019326;28;20382;-62
2021/10/19 01:26:03;;;;;;;19.40;11.00;;;;;;;2.02;100.00;97548.06;5020682;28;20053;-63
2021/10/19 01:28:30;;;;;;;16.13;10.55;;;;;;;1.99;100.00;97551.34;4995744;28;20486;-63
2021/10/19 01:30:58;;;;;;;18.05;11.18;;;;;;;2.14;100.00;97559.25;5000978;28;20421;-62
2021/10/19 01:33:24;;;;;;;19.48;11.00;;;;;;;2.29;100.00;97558.25;5015807;28;20041;-60
2021/10/19 01:35:50;;;;;;;16.88;10.65;;;;;;;2.39;100.00;97549.97;4998667;28;20056;-62
2021/10/19 01:38:21;;;;;;;16.83;10.50;;;;;;;2.46;100.00;97563.94;4994716;28;20053;-62
2021/10/19 01:40:47;;;;;;;14.13;9.52;;;;;;;2.49;100.00;97551.75;5022842;28;20077;-62
2021/10/19 01:43:19;;;;;;;16.13;9.95;;;;;;;2.42;100.00;97560.22;5010852;28;20034;-60
2021/10/19 01:45:49;;;;;;;14.80;9.20;;;;;;;2.44;100.00;97558.03;5021017;28;20044;-61
2021/10/19 01:48:14;;;;;;;15.60;10.00;;;;;;;2.54;100.00;97570.59;5013785;28;20033;-64
2021/10/19 01:50:40;;;;;;;13.35;8.60;;;;;;;2.65;100.00;97582.88;4994849;28;20044;-61
2021/10/19 01:53:07;;;;;;;14.75;8.70;;;;;;;2.71;100.00;97572.78;5011846;28;20049;-60
2021/10/19 01:55:34;;;;;;;13.63;8.70;;;;;;;2.81;100.00;97579.91;5020490;28;20095;-63
2021/10/19 01:57:59;;;;;;;17.48;8.85;;;;;;;2.94;100.00;97571.06;5021399;28;20068;-62
2021/10/19 02:00:25;;;;;;;25.02;10.68;;;;;;;2.70;100.00;97554.94;5019043;28;20037;-62
2021/10/19 02:02:50;;;;;;;30.02;10.50;;;;;;;2.07;100.00;97559.63;5028271;28;20583;-62
2021/10/19 02:05:15;;;;;;;56.08;12.85;;;;;;;1.82;100.00;97551.81;5020885;28;20486;-64
2021/10/19 02:07:41;;;;;;;100.53;14.60;;;;;;;1.80;100.00;97541.31;5033742;28;20052;-62
2021/10/19 02:10:09;;;;;;;74.40;15.85;;;;;;;1.82;100.00;97541.84;5029270;28;20049;-62
2021/10/19 02:12:35;;;;;;;94.93;16.63;;;;;;;1.96;100.00;97536.50;5025469;28;20045;-63
2021/10/19 02:15:01;;;;;;;82.43;16.92;;;;;;;2.06;100.00;97522.06;5019546;28;20049;-63
2021/10/19 02:17:27;;;;;;;84.43;18.13;;;;;;;2.14;100.00;97520.59;5011715;28;20563;-63
2021/10/19 02:19:53;;;;;;;109.90;20.98;;;;;;;2.14;100.00;97523.31;5020805;28;20040;-63
2021/10/19 02:22:18;;;;;;;143.13;20.52;;;;;;;2.15;100.00;97516.81;5014563;28;20400;-63
2021/10/19 02:24:44;;;;;;;131.95;22.55;;;;;;;2.24;100.00;97515.06;5020780;28;20149;-63
2021/10/19 02:27:09;;;;;;;199.38;22.15;;;;;;;2.23;100.00;97506.16;5028877;28;20045;-63
2021/10/19 02:29:35;;;;;;;100.50;19.40;;;;;;;2.16;100.00;97502.19;5038540;28;20116;-64
2021/10/19 02:32:00;;;;;;;107.30;21.08;;;;;;;2.08;100.00;97507.16;5026107;28;20065;-62
2021/10/19 02:34:26;;;;;;;57.25;18.60;;;;;;;2.12;100.00;97507.38;5014613;28;20053;-63
2021/10/19 02:36:52;;;;;;;94.30;21.08;;;;;;;2.19;100.00;97515.13;5023670;28;20076;-62
2021/10/19 02:39:17;;;;;;;44.33;19.48;;;;;;;2.32;100.00;97503.59;5014558;28;20374;-63
2021/10/19 02:41:43;;;;;;;76.25;19.20;;;;;;;2.37;100.00;97505.41;5021134;28;20091;-66
2021/10/19 02:44:09;;;;;;;79.18;20.88;;;;;;;2.40;100.00;97505.63;5014666;28;20076;-62
2021/10/19 02:46:34;;;;;;;74.28;19.60;;;;;;;2.40;100.00;97511.03;5019909;28;20077;-61
2021/10/19 02:49:01;;;;;;;97.57;21.50;;;;;;;2.35;100.00;97503.00;5017574;28;20462;-61
2021/10/19 02:51:27;;;;;;;48.88;20.17;;;;;;;2.37;100.00;97505.41;5014134;28;20045;-61
2021/10/19 02:53:53;;;;;;;47.50;20.27;;;;;;;2.43;100.00;97499.66;5020451;28;20042;-61
2021/10/19 02:56:19;;;;;;;45.10;21.42;;;;;;;2.42;100.00;97491.81;5015581;28;20033;-62
2021/10/19 02:58:45;;;;;;;46.03;20.77;;;;;;;2.52;100.00;97493.56;5022229;28;20070;-63
2021/10/19 03:01:11;;;;;;;48.85;20.33;;;;;;;2.65;100.00;97504.44;5018435;28;20034;-63
2021/10/19 03:03:37;;;;;;;39.15;19.20;;;;;;;2.92;100.00;97527.28;5022358;28;20053;-62
2021/10/19 03:06:02;;;;;;;52.35;23.88;;;;;;;3.32;100.00;97535.78;5017945;28;20045;-60
2021/10/19 03:08:28;;;;;;;47.45;25.95;;;;;;;3.58;100.00;97533.41;5018731;28;22007;-64
2021/10/19 03:10:54;;;;;;;44.22;22.48;;;;;;;3.66;100.00;97521.06;5020011;28;20041;-63
2021/10/19 03:13:19;;;;;;;43.83;23.23;;;;;;;3.61;100.00;97540.91;5016906;28;20107;-63
2021/10/19 03:15:45;;;;;;;41.67;20.40;;;;;;;3.81;100.00;97539.69;5015187;28;20583;-60
2021/10/19 03:18:11;;;;;;;42.28;22.15;;;;;;;3.98;100.00;97536.41;5012808;28;20041;-62
2021/10/19 03:20:36;;;;;;;35.95;17.27;;;;;;;3.97;100.00;97545.63;5009305;28;20034;-62
2021/10/19 03:23:01;;;;;;;29.73;15.38;;;;;;;4.01;100.00;97551.25;5003350;28;20041;-62
2021/10/19 03:25:27;;;;;;;30.50;19.23;;;;;;;4.17;100.00;97544.38;4996638;28;20041;-62
2021/10/19 03:27:53;;;;;;;29.05;15.73;;;;;;;4.36;100.00;97548.88;5003391;28;20042;-63
2021/10/19 03:30:19;;;;;;;25.63;14.77;;;;;;;4.38;100.00;97539.31;4979480;28;20573;-63
2021/10/19 03:32:44;;;;;;;27.80;14.30;;;;;;;4.02;100.00;97539.31;5015030;28;20441;-64
2021/10/19 03:35:10;;;;;;;32.55;14.90;;;;;;;3.73;100.00;97539.63;5031633;28;20072;-61
2021/10/19 03:37:35;;;;;;;28.95;15.65;;;;;;;3.65;100.00;97538.41;5039100;28;20054;-64
2021/10/19 03:40:01;;;;;;;32.67;16.27;;;;;;;3.58;100.00;97541.53;5026945;28;20041;-61
2021/10/19 03:42:26;;;;;;;31.65;15.93;;;;;;;3.66;100.00;97537.31;5029612;28;20565;-63
2021/10/19 03:44:52;;;;;;;37.63;17.77;;;;;;;3.75;100.00;97540.91;5016315;28;20056;-63
2021/10/19 03:47:17;;;;;;;37.00;18.30;;;;;;;3.79;100.00;97535.69;5020147;28;20049;-61
2021/10/19 03:49:43;;;;;;;36.05;16.17;;;;;;;3.88;100.00;97533.88;5024941;28;20042;-63
2021/10/19 03:52:08;;;;;;;35.47;16.38;;;;;;;4.11;100.00;97529.34;5032758;28;20041;-62
2021/10/19 03:54:34;;;;;;;37.72;16.85;;;;;;;4.27;100.00;97546.09;5023605;28;20064;-62
2021/10/19 03:57:00;;;;;;;36.95;18.25;;;;;;;4.50;100.00;97538.81;5021607;28;20045;-62
2021/10/19 03:59:27;;;;;;;33.22;17.30;;;;;;;4.69;100.00;97537.81;5016592;28;20049;-63
2021/10/19 04:01:53;;;;;;;38.17;17.27;;;;;;;4.81;100.00;97537.25;5020012;28;20368;-62
2021/10/19 04:04:19;;;;;;;46.22;17.45;;;;;;;4.87;100.00;97539.56;5016586;28;20045;-62
2021/10/19 04:06:44;;;;;;;29.20;14.98;;;;;;;4.90;100.00;97549.00;5003096;28;20044;-62
2021/10/19 04:09:10;;;;;;;34.60;15.35;;;;;;;4.82;100.00;97552.44;5016992;28;20045;-62
2021/10/19 04:11:35;;;;;;;34.60;15.88;;;;;;;4.77;100.00;97550.66;5022470;28;20052;-62
2021/10/19 04:14:01;;;;;;;36.38;15.98;;;;;;;4.87;100.00;97546.91;5021385;28;20052;-62
2021/10/19 04:16:27;;;;;;;28.73;14.82;;;;;;;5.05;100.00;97542.41;5016125;28;20037;-61
2021/10/19 04:18:52;;;;;;;62.05;17.33;;;;;;;4.64;100.00;97532.50;5008918;28;20037;-62
2021/10/19 04:21:17;;;;;;;72.55;19.65;;;;;;;4.54;100.00;97528.94;5015078;28;20045;-60
2021/10/19 04:23:43;;;;;;;47.00;18.30;;;;;;;4.59;100.00;97528.00;5022738;28;20045;-61
2021/10/19 04:26:08;;;;;;;38.55;17.05;;;;;;;4.77;100.00;97537.91;5013244;28;20073;-61
2021/10/19 04:28:34;;;;;;;40.80;16.48;;;;;;;5.07;100.00;97548.31;5018156;28;20148;-65
2021/10/19 04:30:59;;;;;;;37.78;17.05;;;;;;;5.25;100.00;97563.59;5022130;28;20070;-64
2021/10/19 04:33:25;;;;;;;32.83;16.02;;;;;;;5.34;100.00;97567.16;5012258;28;20758;-64
2021/10/19 04:35:50;;;;;;;35.22;16.23;;;;;;;5.42;100.00;97576.50;5023009;28;20080;-62
2021/10/19 04:38:16;;;;;;;32.90;14.48;;;;;;;5.52;100.00;97567.25;5029566;28;20101;-66
2021/10/19 04:40:41;;;;;;;28.40;14.00;;;;;;;5.49;100.00;97559.72;5039421;28;20048;-63
2021/10/19 04:43:07;;;;;;;27.42;14.57;;;;;;;5.29;100.00;97542.03;5022719;28;20077;-63
2021/10/19 04:45:32;;;;;;;33.67;14.70;;;;;;;5.18;100.00;97549.66;5022143;28;20038;-63
2021/10/19 04:48:01;;;;;;;31.38;17.40;;;;;;;4.94;100.00;97560.84;5020200;28;20037;-63
2021/10/19 04:50:30;;;;;;;36.20;16.83;;;;;;;4.79;100.00;97562.03;4994502;28;20204;-63
2021/10/19 04:52:56;;;;;;;38.00;17.33;;;;;;;4.78;100.00;97560.41;5000583;28;20061;-62
2021/10/19 04:55:22;;;;;;;38.53;18.50;;;;;;;4.79;100.00;97548.44;4995362;28;22145;-63
2021/10/19 04:57:47;;;;;;;61.95;20.90;;;;;;;4.82;100.00;97545.09;5001150;28;20069;-62
2021/10/19 05:00:13;;;;;;;62.58;22.40;;;;;;;4.86;100.00;97548.81;4996750;28;20046;-62
2021/10/19 05:02:44;;;;;;;102.28;26.30;;;;;;;4.93;100.00;97546.47;5012293;28;20041;-64
2021/10/19 05:05:09;;;;;;;127.18;28.75;;;;;;;5.06;100.00;97543.97;5015260;28;20049;-64
2021/10/19 05:07:34;;;;;;;95.25;26.10;;;;;;;5.07;100.00;97549.09;5021921;28;20045;-62
2021/10/19 05:10:00;;;;;;;182.27;32.15;;;;;;;5.09;100.00;97549.59;5022462;28;20038;-63
2021/10/19 05:12:25;;;;;;;133.25;32.78;;;;;;;5.14;100.00;97548.69;5015563;28;20148;-63
2021/10/19 05:14:51;;;;;;;255.77;36.45;;;;;;;5.19;100.00;97551.25;5020777;28;20041;-63
2021/10/19 05:17:16;;;;;;;185.13;33.78;;;;;;;5.18;100.00;97552.38;5013930;28;20041;-62
2021/10/19 05:19:42;;;;;;;85.97;27.70;;;;;;;5.23;100.00;97568.53;5021084;28;20045;-63
2021/10/19 05:22:07;;;;;;;184.18;31.88;;;;;;;5.29;100.00;97563.78;5014931;28;20040;-63
2021/10/19 05:24:33;;;;;;;91.13;29.45;;;;;;;5.40;100.00;97565.09;5010872;28;20570;-62
2021/10/19 05:26:58;;;;;;;247.25;34.30;;;;;;;5.49;100.00;97565.97;5015131;28;20098;-62
2021/10/19 05:29:23;;;;;;;87.65;28.77;;;;;;;5.46;100.00;97568.53;5016046;28;20119;-63
2021/10/19 05:31:49;;;;;;;115.03;31.02;;;;;;;5.58;100.00;97566.00;5017972;28;20498;-63
2021/10/19 05:34:14;;;;;;;262.15;33.97;;;;;;;5.59;100.00;97575.75;5017081;28;20140;-61
2021/10/19 05:36:40;;;;;;;94.32;29.58;;;;;;;5.60;100.00;97576.56;5022137;28;20656;-63
2021/10/19 05:39:05;;;;;;;86.38;27.65;;;;;;;5.68;100.00;97575.81;5012544;28;20067;-62
2021/10/19 05:41:31;;;;;;;225.60;31.02;;;;;;;5.68;100.00;97579.31;5006110;28;20056;-61
2021/10/19 05:43:56;;;;;;;102.35;28.65;;;;;;;5.68;100.00;97581.25;5021116;28;20042;-62
2021/10/19 05:46:22;;;;;;;83.28;25.40;;;;;;;5.88;100.00;97580.69;5015096;28;20931;-61
2021/10/19 05:48:47;;;;;;;84.82;27.40;;;;;;;5.94;100.00;97579.44;5019377;28;20049;-62
2021/10/19 05:51:12;;;;;;;100.50;25.95;;;;;;;6.02;100.00;97582.53;5014193;28;20831;-60
2021/10/19 05:53:38;;;;;;;82.63;25.85;;;;;;;6.04;100.00;97583.81;5019538;28;20041;-63
2021/10/19 05:56:03;;;;;;;83.75;26.50;;;;;;;6.16;100.00;97580.50;5012414;28;20072;-65
2021/10/19 05:58:29;;;;;;;99.93;26.25;;;;;;;6.13;100.00;97579.19;5018619;28;20525;-61
2021/10/19 06:00:54;;;;;;;116.22;27.85;;;;;;;6.18;100.00;97572.81;5018299;28;20045;-62
2021/10/19 06:03:20;;;;;;;93.20;27.55;;;;;;;6.12;100.00;97582.22;5023653;28;20144;-61
2021/10/19 06:05:46;;;;;;;73.90;23.63;;;;;;;6.12;100.00;97591.22;5031207;28;20550;-61
2021/10/19 06:08:11;;;;;;;78.63;25.15;;;;;;;6.24;100.00;97578.91;5017469;28;20362;-61
2021/10/19 06:10:37;;;;;;;76.30;25.75;;;;;;;6.39;100.00;97581.19;5015800;28;20048;-62
2021/10/19 06:13:02;;;;;;;79.55;25.05;;;;;;;6.48;100.00;97581.19;5018265;28;20086;-61
2021/10/19 06:15:28;;;;;;;123.00;25.48;;;;;;;6.39;100.00;97566.75;5017558;28;20053;-64
2021/10/19 06:17:54;;;;;;;221.32;28.02;;;;;;;6.31;100.00;97562.91;5016616;28;20149;-62
2021/10/19 06:20:20;;;;;;;226.43;32.80;;;;;;;6.13;100.00;97575.69;5019128;28;20065;-62
2021/10/19 06:22:46;;;;;;;75.07;25.92;;;;;;;6.08;100.00;97587.50;5012610;28;20518;-62
2021/10/19 06:25:11;;;;;;;73.13;25.00;;;;;;;6.23;100.00;97590.91;4999437;28;20045;-62
2021/10/19 06:27:37;;;;;;;93.10;26.83;;;;;;;6.46;100.00;97583.44;5003751;28;20045;-62
2021/10/19 06:30:04;;;;;;;73.97;25.48;;;;;;;6.45;100.00;97579.91;5015592;28;20406;-62
2021/10/19 06:32:29;;;;;;;87.60;26.00;;;;;;;6.54;100.00;97581.84;5012816;28;20069;-62
2021/10/19 06:34:55;;;;;;;79.65;27.05;;;;;;;6.62;100.00;97590.00;5035189;23;20564;-62
2021/10/19 06:37:20;;;;;;;68.05;24.50;;;;;;;6.69;100.00;97595.78;5015067;28;20037;-62
2021/10/19 06:39:46;;;;;;;68.88;25.15;;;;;;;6.77;100.00;97579.75;5015094;28;20485;-61
2021/10/19 06:42:12;;;;;;;66.97;23.35;;;;;;;6.71;100.00;97581.84;5014880;28;20045;-61
2021/10/19 06:44:37;;;;;;;62.22;25.05;;;;;;;6.79;100.00;97591.97;5026642;28;20049;-61
2021/10/19 06:47:04;;;;;;;246.70;32.35;;;;;;;6.53;100.00;97586.47;5032373;28;20048;-62
2021/10/19 06:49:29;;;;;;;105.60;27.00;;;;;;;6.58;100.00;97586.31;5039680;28;20041;-62
2021/10/19 06:51:54;;;;;;;109.47;27.17;;;;;;;6.62;100.00;97587.28;5042428;28;20120;-61
2021/10/19 06:54:20;;;;;;;66.75;24.83;;;;;;;6.78;100.00;97584.09;5029778;28;20037;-62
2021/10/19 06:56:45;;;;;;;64.50;24.40;;;;;;;6.92;100.00;97573.84;5036699;28;20037;-61
2021/10/19 06:59:11;;;;;;;57.45;23.05;;;;;;;7.03;100.00;97575.13;5036577;28;20106;-62
2021/10/19 07:01:36;;;;;;;67.95;23.60;;;;;;;7.10;100.00;97590.19;5037773;28;20037;-61
2021/10/19 07:04:02;;;;;;;57.28;23.08;;;;;;;7.17;100.00;97594.03;5041602;28;20556;-62
2021/10/19 07:06:27;;;;;;;80.80;24.42;;;;;;;7.17;100.00;97588.56;5035432;28;20044;-60
2021/10/19 07:08:53;;;;;;;52.22;22.77;;;;;;;7.21;100.00;97589.53;5048992;28;20037;-62
2021/10/19 07:11:20;;;;;;;53.45;23.55;;;;;;;7.10;100.00;97604.59;5034568;28;20044;-60
2021/10/19 07:13:45;;;;;;;58.35;23.77;;;;;;;7.21;100.00;97608.59;5016451;28;20452;-62
2021/10/19 07:16:11;;;;;;;102.75;24.48;;;;;;;7.08;100.00;97610.38;5032653;28;20048;-62
2021/10/19 07:18:36;;;;;;;71.05;24.15;;;;;;;6.91;100.00;97615.03;5034143;28;20060;-63
2021/10/19 07:21:02;;;;;;;55.33;23.25;;;;;;;6.99;100.00;97619.69;5041541;28;20037;-64
2021/10/19 07:23:27;;;;;;;95.72;24.70;;;;;;;7.06;100.00;97620.78;5026837;28;20068;-59
2021/10/19 07:25:53;;;;;;;74.20;22.95;;;;;;;7.10;100.00;97610.06;5033734;28;20045;-66
2021/10/19 07:28:19;;;;;;;57.65;23.17;;;;;;;7.28;100.00;97613.56;5030936;28;20041;-66
2021/10/19 07:30:45;;;;;;;57.42;24.10;;;;;;;7.23;100.00;97619.19;5040286;28;20049;-65
2021/10/19 07:33:11;;;;;;;55.28;24.55;;;;;;;7.25;100.00;97617.72;5033663;28;20045;-65
2021/10/19 07:35:37;;;;;;;62.33;25.48;;;;;;;7.32;100.00;97609.06;5056117;28;20064;-65
2021/10/19 07:38:04;;;;;;;68.35;26.83;;;;;;;7.28;100.00;97603.47;5057627;28;20099;-65
2021/10/19 07:40:29;;;;;;;66.22;25.48;;;;;;;7.12;100.00;97602.34;5047388;28;20036;-65
2021/10/19 07:42:56;;;;;;;54.47;24.35;;;;;;;7.22;100.00;97609.38;5033294;28;20063;-65
2021/10/19 07:45:23;;;;;;;64.88;26.27;;;;;;;7.49;100.00;97615.59;5044257;28;20040;-67
2021/10/19 07:47:49;;;;;;;56.50;26.00;;;;;;;7.73;100.00;97610.41;5040749;28;20046;-67
2021/10/19 07:50:18;;;;;;;56.05;27.30;;;;;;;7.80;100.00;97594.34;5033228;28;20148;-67
2021/10/19 07:52:43;;;;;;;54.23;24.50;;;;;;;7.82;100.00;97605.72;5041733;28;20585;-66
2021/10/19 07:55:10;;;;;;;67.75;25.90;;;;;;;7.79;100.00;97609.09;5032048;28;20041;-67
2021/10/19 07:57:43;;;;;;;55.88;23.88;;;;;;;7.92;100.00;97607.28;5041782;28;20041;-67
2021/10/19 08:00:09;;;;;;;60.78;25.58;;;;;;;7.97;100.00;97611.78;5047927;28;20037;-67
2021/10/19 08:02:34;;;;;;;58.35;24.92;;;;;;;8.23;100.00;97614.41;5049044;28;20120;-67
2021/10/19 08:04:59;;;;;;;52.83;24.67;;;;;;;8.58;100.00;97615.03;5048473;28;20128;-67
2021/10/19 08:07:25;;;;;;;51.22;24.33;;;;;;;8.78;100.00;97609.91;5037029;28;20132;-67
2021/10/19 08:09:50;;;;;;;50.28;24.65;;;;;;;8.69;100.00;97617.38;5040898;28;20048;-67
2021/10/19 08:12:16;;;;;;;47.30;22.85;;;;;;;8.95;100.00;97615.25;5026848;28;20409;-66
2021/10/19 08:14:41;;;;;;;47.15;23.48;;;;;;;9.33;100.00;97606.09;5041560;28;20059;-66
2021/10/19 08:17:07;;;;;;;47.00;25.33;;;;;;;9.33;100.00;97608.81;5031692;28;20402;-66
2021/10/19 08:19:32;;;;;;;46.30;24.60;;;;;;;9.14;100.00;97616.72;5039640;28;20045;-66
2021/10/19 08:21:57;;;;;;;40.17;21.73;;;;;;;9.35;100.00;97605.75;5042271;28;20240;-66
2021/10/19 08:24:23;;;;;;;40.97;21.67;;;;;;;9.46;100.00;97609.66;5024265;28;20045;-66
2021/10/19 08:26:48;;;;;;;43.17;22.50;;;;;;;9.49;100.00;97613.66;5042407;28;20389;-66
2021/10/19 08:29:14;;;;;;;51.33;27.58;;;;;;;9.47;100.00;97619.47;5031800;28;20081;-66
2021/10/19 08:31:39;;;;;;;49.17;26.58;;;;;;;9.60;100.00;97609.38;5041191;28;20037;-67
2021/10/19 08:34:04;;;;;;;39.40;22.88;;;;;;;9.31;100.00;97616.56;5031628;28;20102;-68
2021/10/19 08:36:30;;;;;;;36.00;20.70;;;;;;;9.40;100.00;97611.03;5030889;28;20116;-67
2021/10/19 08:38:55;;;;;;;35.25;20.75;;;;;;;9.27;100.00;97598.44;5051610;28;20033;-66
2021/10/19 08:41:22;;;;;;;39.28;21.45;;;;;;;9.05;100.00;97607.78;5048021;28;20139;-67
2021/10/19 08:43:48;;;;;;;35.03;21.23;;;;;;;9.29;100.00;97604.34;5062285;28;20037;-66
2021/10/19 08:46:15;;;;;;;34.05;20.13;;;;;;;9.63;100.00;97605.94;5055323;28;20548;-66
2021/10/19 08:48:41;;;;;;;32.97;18.58;;;;;;;10.00;100.00;97602.50;5058143;28;20049;-66
2021/10/19 08:51:10;;;;;;;27.45;16.95;;;;;;;10.13;100.00;97599.41;5055178;28;20040;-66
2021/10/19 08:53:41;;;;;;;26.65;15.68;;;;;;;10.35;100.00;97600.13;5059860;28;20070;-66
2021/10/19 08:56:08;;;;;;;26.85;14.52;;;;;;;10.53;100.00;97606.16;5050905;28;20037;-66
2021/10/19 08:58:34;;;;;;;27.10;15.05;;;;;;;10.50;100.00;97615.06;5059918;28;20036;-67
2021/10/19 09:01:10;;;;;;;26.08;15.55;;;;;;;10.59;100.00;97617.66;5059641;28;20090;-67
2021/10/19 09:03:50;;;;;;;23.88;14.73;;;;;;;10.72;100.00;97622.00;5055795;28;20560;-67
2021/10/19 09:06:17;;;;;;;27.45;16.05;;;;;;;10.76;100.00;97622.13;5055110;28;20663;-67
2021/10/19 09:08:50;;;;;;;24.27;14.63;;;;;;;10.85;100.00;97631.78;5060205;28;20072;-67
2021/10/19 09:11:16;;;;;;;22.70;13.68;;;;;;;10.70;100.00;97627.84;5053417;28;20079;-67
2021/10/19 09:13:53;;;;;;;21.83;14.50;;;;;;;10.89;100.00;97629.97;5052625;28;20041;-66
2021/10/19 09:16:47;;;;;;;22.13;14.43;;;;;;;11.02;100.00;97630.75;5035347;28;20041;-66
2021/10/19 09:19:16;;;;;;;22.58;14.02;;;;;;;11.22;100.00;97628.19;5024541;28;20037;-67
2021/10/19 09:21:47;;;;;;;25.08;15.98;;;;;;;11.38;100.00;97626.28;5028898;28;20466;-67
2021/10/19 09:24:32;;;;;;;25.00;14.80;;;;;;;11.45;100.00;97642.13;5026853;28;20037;-68
2021/10/19 09:27:10;;;;;;;24.50;15.85;;;;;;;11.54;100.00;97641.97;5045907;28;20127;-67
2021/10/19 09:29:46;;;;;;;24.23;14.68;;;;;;;11.52;100.00;97638.78;5034925;28;20185;-66
2021/10/19 09:32:13;;;;;;;23.48;14.80;;;;;;;11.52;100.00;97634.09;5032889;28;20393;-66
2021/10/19 09:34:41;;;;;;;24.42;14.55;;;;;;;11.62;100.00;97614.38;5030193;28;20041;-66
2021/10/19 09:37:09;;;;;;;23.35;15.35;;;;;;;11.80;100.00;97614.06;5036067;28;20048;-67
2021/10/19 09:39:40;;;;;;;23.20;14.88;;;;;;;11.81;100.00;97621.97;5038555;28;20045;-67
2021/10/19 09:42:09;;;;;;;22.00;14.05;;;;;;;11.90;100.00;97619.06;5034371;28;20040;-67
2021/10/19 09:44:35;;;;;;;27.30;14.30;;;;;;;11.95;100.00;97615.25;5034086;28;20037;-67
2021/10/19 09:47:02;;;;;;;21.95;14.27;;;;;;;12.14;100.00;97629.09;5039313;28;20048;-66
2021/10/19 09:49:29;;;;;;;23.67;13.52;;;;;;;12.28;99.91;97636.91;5035055;28;20195;-66
2021/10/19 09:51:57;;;;;;;37.42;19.27;;;;;;;12.48;98.20;97634.19;5039093;28;20056;-66
2021/10/19 09:54:27;;;;;;;26.52;16.33;;;;;;;12.48;94.38;97625.97;5023661;28;20533;-66
2021/10/19 09:56:56;;;;;;;24.15;14.43;;;;;;;12.47;94.39;97622.44;5026061;28;20048;-65
2021/10/19 09:59:22;;;;;;;24.38;14.98;;;;;;;12.38;96.25;97614.38;5028225;28;20040;-66
2021/10/19 10:01:47;;;;;;;25.92;14.75;;;;;;;12.38;95.20;97616.31;5040278;28;20048;-66
2021/10/19 10:04:13;;;;;;;21.90;13.38;;;;;;;12.30;96.13;97625.53;5030925;28;20072;-66
2021/10/19 10:06:40;;;;;;;20.15;13.15;;;;;;;12.41;95.90;97619.16;5034019;28;20629;-66
2021/10/19 10:09:06;;;;;;;20.90;12.77;;;;;;;12.41;94.03;97621.13;5031542;28;20477;-66
2021/10/19 10:11:31;;;;;;;20.67;12.57;;;;;;;12.39;92.36;97620.69;5035951;28;20041;-65
2021/10/19 10:14:02;;;;;;;21.75;12.63;;;;;;;12.37;94.09;97623.78;5030614;28;20049;-66
2021/10/19 10:16:29;;;;;;;24.95;13.07;;;;;;;12.43;91.93;97616.06;5036017;28;20051;-65
2021/10/19 10:18:55;;;;;;;19.70;11.18;;;;;;;12.39;93.17;97613.22;5031902;28;20075;-65
2021/10/19 10:21:23;;;;;;;19.13;11.27;;;;;;;12.43;93.32;97619.59;5035217;28;20388;-65
2021/10/19 10:24:05;;;;;;;23.42;13.93;;;;;;;11.98;99.14;97629.09;5021461;28;20094;-66
2021/10/19 10:26:33;;;;;;;22.67;13.77;;;;;;;11.33;100.00;97620.25;5038699;28;20144;-65
2021/10/19 10:29:15;;;;;;;24.80;15.98;;;;;;;11.58;100.00;97620.94;5039204;28;20041;-66
2021/10/19 10:31:52;;;;;;;20.75;13.35;;;;;;;11.95;100.00;97620.75;5035300;28;20041;-66
2021/10/19 10:34:32;;;;;;;25.92;16.55;;;;;;;11.28;100.00;97615.81;5032037;28;20075;-65
2021/10/19 10:37:08;;;;;;;;;;;;;;;11.20;100.00;97600.28;5037053;28;20037;-66
2021/10/19 10:39:34;;;;;;;23.15;14.82;;;;;;;10.77;100.00;97599.03;5038913;28;19995;-65
2021/10/19 10:42:07;;;;;;;22.13;13.85;;;;;;;11.20;100.00;97603.84;5039529;28;20044;-65
2021/10/19 10:44:40;;;;;;;23.15;14.43;;;;;;;11.33;100.00;97592.84;5038675;28;20037;-66
2021/10/19 10:47:07;;;;;;;37.35;20.65;;;;;;;11.64;100.00;97594.84;5030224;28;20049;-66
2021/10/19 10:49:34;;;;;;;37.05;21.73;;;;;;;11.92;99.22;97597.56;5023090;28;20069;-65
2021/10/19 10:52:02;;;;;;;18.88;11.57;;;;;;;11.31;92.76;97598.66;5038998;28;20084;-65
2021/10/19 10:54:29;;;;;;;16.85;11.20;;;;;;;11.25;95.84;97586.31;5035150;28;20552;-65
2021/10/19 10:56:56;;;;;;;17.38;10.93;;;;;;;11.65;94.21;97580.78;5029301;28;20049;-65
2021/10/19 11:02:15;;;;;;;21.85;12.13;;;;;;;12.34;94.10;97564.03;5024780;28;21136;-65
2021/10/19 11:04:48;;;;;;;18.30;11.18;;;;;;;11.89;97.93;97570.78;5027625;28;20045;-66
2021/10/19 11:07:34;;;;;;;19.35;12.43;;;;;;;12.15;96.93;97569.47;5021172;28;20128;-66
2021/10/19 11:10:09;;;;;;;21.73;12.20;;;;;;;12.22;95.79;97570.44;5029260;28;20473;-65
2021/10/19 11:12:35;;;;;;;19.50;11.73;;;;;;;12.47;94.73;97556.47;5027240;28;20385;-66
2021/10/19 11:15:13;;;;;;;24.30;12.40;;;;;;;12.58;95.20;97556.72;5029851;28;20037;-65
2021/10/19 11:17:49;;;;;;;17.83;11.85;;;;;;;12.92;94.71;97546.84;5028706;28;20124;-65